createdAt,value
2022-12-06T00:01:05.555Z,2.71
2022-12-06T00:03:33.214Z,2.66
2022-12-06T00:06:02.867Z,2.68
2022-12-06T00:08:30.364Z,2.71
2022-12-06T00:11:06.322Z,2.73
2022-12-06T00:13:33.862Z,2.62
2022-12-06T00:16:03.421Z,2.69
2022-12-06T00:18:31.138Z,2.71
2022-12-06T00:21:06.688Z,2.72
2022-12-06T00:23:36.175Z,2.71
2022-12-06T00:26:05.427Z,2.71
2022-12-06T00:28:33.049Z,2.69
2022-12-06T00:31:01.220Z,2.72
2022-12-06T00:33:29.262Z,2.68
2022-12-06T00:35:57.085Z,2.74
2022-12-06T00:38:24.624Z,2.59
2022-12-06T00:40:52.183Z,2.36
2022-12-06T00:43:20.936Z,2.41
2022-12-06T00:45:48.414Z,2.66
2022-12-06T00:48:15.891Z,2.21
2022-12-06T00:50:43.336Z,2.54
2022-12-06T00:53:10.806Z,2.68
2022-12-06T00:55:38.335Z,2.17
2022-12-06T00:58:05.808Z,2.68
2022-12-06T01:00:34.721Z,2.72
2022-12-06T01:03:02.367Z,2.57
2022-12-06T01:05:29.972Z,2.53
2022-12-06T01:07:57.593Z,2.56
2022-12-06T01:10:25.357Z,2.55
2022-12-06T01:12:52.799Z,2.63
2022-12-06T01:15:20.351Z,2.58
2022-12-06T01:17:49.128Z,2.74
2022-12-06T01:20:16.611Z,2.49
2022-12-06T01:22:44.054Z,2.68
2022-12-06T01:25:11.550Z,2.51
2022-12-06T01:27:39.019Z,2.55
2022-12-06T01:30:07.916Z,2.70
2022-12-06T01:32:35.348Z,2.69
2022-12-06T01:35:04.871Z,2.54
2022-12-06T01:37:32.364Z,2.42
2022-12-06T01:39:59.984Z,2.42
2022-12-06T01:42:27.573Z,2.31
2022-12-06T01:44:59.306Z,2.33
2022-12-06T01:47:29.270Z,2.13
2022-12-06T01:50:01.189Z,1.97
2022-12-06T01:52:35.496Z,2.63
2022-12-06T01:55:04.253Z,2.72
2022-12-06T01:57:32.067Z,2.48
2022-12-06T01:59:59.950Z,2.35
2022-12-06T02:02:27.966Z,2.21
2022-12-06T02:04:56.391Z,1.97
2022-12-06T02:07:25.224Z,2.51
2022-12-06T02:09:55.661Z,2.63
2022-12-06T02:12:23.121Z,2.56
2022-12-06T02:14:54.900Z,2.70
2022-12-06T02:17:34.352Z,2.78
2022-12-06T02:20:09.660Z,2.52
2022-12-06T02:22:59.932Z,2.20
2022-12-06T02:25:51.013Z,2.65
2022-12-06T02:28:44.566Z,2.49
2022-12-06T02:31:16.879Z,2.55
2022-12-06T02:33:49.501Z,2.34
2022-12-06T02:36:26.086Z,2.35
2022-12-06T02:38:57.592Z,2.60
2022-12-06T02:41:32.696Z,2.74
2022-12-06T02:44:02.075Z,2.64
2022-12-06T02:46:35.558Z,2.67
2022-12-06T02:49:04.500Z,2.54
2022-12-06T02:51:35.220Z,2.74
2022-12-06T02:54:06.269Z,2.78
2022-12-06T02:56:35.250Z,1.87
2022-12-06T02:59:02.726Z,2.46
2022-12-06T03:01:35.093Z,2.53
2022-12-06T03:04:34.872Z,2.56
2022-12-06T03:07:20.187Z,2.71
2022-12-06T03:09:58.544Z,2.72
2022-12-06T03:12:34.092Z,2.45
2022-12-06T03:15:09.914Z,2.62
2022-12-06T03:17:45.694Z,2.67
2022-12-06T03:20:20.411Z,2.57
2022-12-06T03:22:52.848Z,2.68
2022-12-06T03:25:20.668Z,2.61
2022-12-06T03:27:50.504Z,2.47
2022-12-06T03:30:18.777Z,2.70
2022-12-06T03:32:50.535Z,2.72
2022-12-06T03:35:22.727Z,2.71
2022-12-06T03:37:56.735Z,2.65
2022-12-06T03:40:28.215Z,2.76
2022-12-06T03:42:56.365Z,2.70
2022-12-06T03:45:33.795Z,2.68
2022-12-06T03:48:08.207Z,2.68
2022-12-06T03:50:40.691Z,2.50
2022-12-06T03:53:08.218Z,2.75
2022-12-06T03:55:35.659Z,2.63
2022-12-06T03:58:03.345Z,2.49
2022-12-06T04:00:31.024Z,2.35
2022-12-06T04:02:58.455Z,2.63
2022-12-06T04:05:27.284Z,2.76
2022-12-06T04:07:54.784Z,2.52
2022-12-06T04:10:22.843Z,2.51
2022-12-06T04:13:02.530Z,2.80
2022-12-06T04:15:32.024Z,2.83
2022-12-06T04:18:11.096Z,2.80
2022-12-06T04:21:02.327Z,2.85
2022-12-06T04:23:30.954Z,2.60
2022-12-06T04:25:58.505Z,2.72
2022-12-06T04:28:43.920Z,2.81
2022-12-06T04:31:29.134Z,2.69
2022-12-06T04:34:14.555Z,2.59
2022-12-06T04:37:00.892Z,2.70
2022-12-06T04:39:28.388Z,2.75
2022-12-06T04:42:13.928Z,2.79
2022-12-06T04:44:41.540Z,2.57
2022-12-06T04:47:09.754Z,2.59
2022-12-06T04:49:38.203Z,2.74
2022-12-06T04:52:08.538Z,2.75
2022-12-06T04:54:36.755Z,2.57
2022-12-06T04:57:11.053Z,2.61
2022-12-06T04:59:39.632Z,2.71
2022-12-06T05:02:09.723Z,2.73
2022-12-06T05:04:37.282Z,2.51
2022-12-06T05:07:05.167Z,2.59
2022-12-06T05:09:33.963Z,2.45
2022-12-06T05:12:01.457Z,2.62
2022-12-06T05:14:28.914Z,2.79
2022-12-06T05:16:56.374Z,2.72
2022-12-06T05:19:23.958Z,2.74
2022-12-06T05:21:51.367Z,2.75
2022-12-06T05:24:18.794Z,2.66
2022-12-06T05:26:47.569Z,2.76
2022-12-06T05:29:15.009Z,2.71
2022-12-06T05:31:42.475Z,2.65
2022-12-06T05:34:10.985Z,2.66
2022-12-06T05:36:38.470Z,2.78
2022-12-06T05:39:05.886Z,2.82
2022-12-06T05:41:33.939Z,2.72
2022-12-06T05:44:02.744Z,2.59
2022-12-06T05:46:30.327Z,2.73
2022-12-06T05:48:57.835Z,2.84
2022-12-06T05:51:25.243Z,2.86
2022-12-06T05:53:52.675Z,2.78
2022-12-06T05:56:20.123Z,2.82
2022-12-06T05:58:47.562Z,2.83
2022-12-06T06:01:16.355Z,2.45
2022-12-06T06:03:47.534Z,2.76
2022-12-06T06:06:15.777Z,2.48
2022-12-06T06:08:43.251Z,2.43
2022-12-06T06:11:10.681Z,2.80
2022-12-06T06:13:38.217Z,2.72
2022-12-06T06:16:06.288Z,2.54
2022-12-06T06:18:35.100Z,2.77
2022-12-06T06:21:03.792Z,2.83
2022-12-06T06:23:31.392Z,2.92
2022-12-06T06:25:58.895Z,2.96
2022-12-06T06:28:26.411Z,2.80
2022-12-06T06:30:53.876Z,2.91
2022-12-06T06:33:23.685Z,2.86
2022-12-06T06:35:52.447Z,2.93
2022-12-06T06:38:19.907Z,2.97
2022-12-06T06:40:47.415Z,2.93
2022-12-06T06:43:21.080Z,2.98
2022-12-06T06:45:53.200Z,2.93
2022-12-06T06:48:21.056Z,2.99
2022-12-06T06:50:52.588Z,2.89
2022-12-06T06:53:24.975Z,2.76
2022-12-06T06:55:53.831Z,2.93
2022-12-06T06:58:21.381Z,2.59
2022-12-06T07:00:53.483Z,2.79
2022-12-06T07:03:20.989Z,2.84
2022-12-06T07:05:52.644Z,2.83
2022-12-06T07:08:20.335Z,2.84
2022-12-06T07:10:49.695Z,2.92
2022-12-06T07:13:17.284Z,2.80
2022-12-06T07:15:44.809Z,2.84
2022-12-06T07:18:12.263Z,2.92
2022-12-06T07:20:39.697Z,2.99
2022-12-06T07:23:07.093Z,2.99
2022-12-06T07:25:34.546Z,2.84
2022-12-06T07:28:03.325Z,2.81
2022-12-06T07:30:30.924Z,2.92
2022-12-06T07:32:58.694Z,2.96
2022-12-06T07:35:41.974Z,3.01
2022-12-06T07:38:13.876Z,2.77
2022-12-06T07:41:03.525Z,2.92
2022-12-06T07:43:55.850Z,2.91
2022-12-06T07:46:23.307Z,2.97
2022-12-06T07:48:50.830Z,2.87
2022-12-06T07:51:19.149Z,2.92
2022-12-06T07:53:46.576Z,2.93
2022-12-06T07:56:14.008Z,2.91
2022-12-06T07:58:43.368Z,2.76
2022-12-06T08:01:10.871Z,2.66
2022-12-06T08:03:40.448Z,2.71
2022-12-06T08:06:08.840Z,2.90
2022-12-06T08:08:36.988Z,2.95
2022-12-06T08:11:07.175Z,2.92
2022-12-06T08:13:36.137Z,3.02
2022-12-06T08:16:06.812Z,2.97
2022-12-06T08:18:34.344Z,2.70
2022-12-06T08:21:01.910Z,2.73
2022-12-06T08:23:33.911Z,2.90
2022-12-06T08:26:05.165Z,3.00
2022-12-06T08:28:33.872Z,3.00
2022-12-06T08:31:05.885Z,2.91
2022-12-06T08:33:35.806Z,2.81
2022-12-06T08:36:08.897Z,2.91
2022-12-06T08:38:36.752Z,3.04
2022-12-06T08:41:04.599Z,3.14
2022-12-06T08:43:32.512Z,3.08
2022-12-06T08:46:00.117Z,3.13
2022-12-06T08:48:28.095Z,3.01
2022-12-06T08:50:57.018Z,3.11
2022-12-06T08:53:24.463Z,3.02
2022-12-06T08:56:02.290Z,3.07
2022-12-06T08:58:30.200Z,3.14
2022-12-06T09:00:57.704Z,3.09
2022-12-06T09:03:25.160Z,3.08
2022-12-06T09:05:52.586Z,3.12
2022-12-06T09:08:21.435Z,3.16
2022-12-06T09:10:48.924Z,3.04
2022-12-06T09:13:16.335Z,2.99
2022-12-06T09:15:43.886Z,2.99
2022-12-06T09:18:11.693Z,3.18
2022-12-06T09:20:40.513Z,3.13
2022-12-06T09:23:07.982Z,3.01
2022-12-06T09:25:36.759Z,3.07
2022-12-06T09:28:05.339Z,3.18
2022-12-06T09:30:32.793Z,2.86
2022-12-06T09:33:00.246Z,2.92
2022-12-06T09:35:27.728Z,2.94
2022-12-06T09:37:55.427Z,2.84
2022-12-06T09:40:32.088Z,2.80
2022-12-06T09:43:12.938Z,2.72
2022-12-06T09:46:11.416Z,2.62
2022-12-06T09:49:08.221Z,2.99
2022-12-06T09:51:50.587Z,2.61
2022-12-06T09:54:38.755Z,2.73
2022-12-06T09:57:09.135Z,2.73
2022-12-06T09:59:48.502Z,2.81
2022-12-06T10:02:32.925Z,2.80
2022-12-06T10:05:20.190Z,2.87
2022-12-06T10:07:57.993Z,2.86
2022-12-06T10:10:35.260Z,2.64
2022-12-06T10:13:13.026Z,2.54
2022-12-06T10:15:53.556Z,2.53
2022-12-06T10:18:35.720Z,2.45
2022-12-06T10:21:14.123Z,2.51
2022-12-06T10:24:01.634Z,2.44
2022-12-06T10:26:38.293Z,2.44
2022-12-06T10:29:15.179Z,2.73
2022-12-06T10:31:55.992Z,2.57
2022-12-06T10:34:29.878Z,2.60
2022-12-06T10:37:04.447Z,2.59
2022-12-06T10:39:44.942Z,2.53
2022-12-06T10:42:25.109Z,2.61
2022-12-06T10:44:58.158Z,2.50
2022-12-06T10:47:31.767Z,2.90
2022-12-06T10:50:04.919Z,2.47
2022-12-06T10:52:39.412Z,2.71
2022-12-06T10:55:19.047Z,2.95
2022-12-06T10:57:53.108Z,2.65
2022-12-06T11:00:23.251Z,2.45
2022-12-06T11:02:58.612Z,2.61
2022-12-06T11:05:31.467Z,2.56
2022-12-06T11:08:06.917Z,2.53
2022-12-06T11:10:36.240Z,2.45
2022-12-06T11:13:16.177Z,2.48
2022-12-06T11:15:49.675Z,2.61
2022-12-06T11:18:19.462Z,2.60
2022-12-06T11:20:51.558Z,2.76
2022-12-06T11:23:26.695Z,2.65
2022-12-06T11:26:02.328Z,2.50
2022-12-06T11:28:37.442Z,2.70
2022-12-06T11:31:13.877Z,2.54
2022-12-06T11:33:42.834Z,2.39
2022-12-06T11:36:11.315Z,2.54
2022-12-06T11:38:41.922Z,2.33
2022-12-06T11:41:14.051Z,2.63
2022-12-06T11:43:41.995Z,2.69
2022-12-06T11:46:11.993Z,2.54
2022-12-06T11:48:39.668Z,2.67
2022-12-06T11:51:17.477Z,2.33
2022-12-06T11:53:55.454Z,2.59
2022-12-06T11:56:26.437Z,2.48
2022-12-06T11:59:04.428Z,2.38
2022-12-06T12:01:40.684Z,2.31
2022-12-06T12:04:25.824Z,2.12
2022-12-06T12:06:59.244Z,2.21
2022-12-06T12:09:31.246Z,2.29
2022-12-06T12:12:04.730Z,2.27
2022-12-06T12:14:38.510Z,2.32
2022-12-06T12:17:16.772Z,2.07
2022-12-06T12:19:48.404Z,2.18
2022-12-06T12:22:26.404Z,2.17
2022-12-06T12:27:48.145Z,2.22
2022-12-06T12:30:33.080Z,2.24
2022-12-06T12:33:15.369Z,2.11
2022-12-06T12:35:44.544Z,2.25
2022-12-06T12:38:23.090Z,2.16
2022-12-06T12:40:52.990Z,2.04
2022-12-06T12:43:23.970Z,2.07
2022-12-06T12:46:09.031Z,2.07
2022-12-06T12:48:37.715Z,2.03
2022-12-06T12:51:07.530Z,2.15
2022-12-06T12:53:40.534Z,2.10
2022-12-06T12:56:10.869Z,2.27
2022-12-06T12:58:38.528Z,2.21
2022-12-06T13:01:18.318Z,2.19
2022-12-06T13:03:51.451Z,2.18
2022-12-06T13:06:28.214Z,2.50
2022-12-06T13:09:00.399Z,2.35
2022-12-06T13:11:29.265Z,2.26
2022-12-06T13:13:57.345Z,2.25
2022-12-06T13:16:29.744Z,2.19
2022-12-06T13:18:59.241Z,2.25
2022-12-06T13:21:34.780Z,2.25
2022-12-06T13:24:08.833Z,2.20
2022-12-06T13:26:40.535Z,2.29
2022-12-06T13:29:21.268Z,2.24
2022-12-06T13:31:51.448Z,2.22
2022-12-06T13:34:24.564Z,2.15
2022-12-06T13:36:52.727Z,2.08
2022-12-06T13:39:42.922Z,2.05
2022-12-06T13:42:40.574Z,2.18
2022-12-06T13:45:42.204Z,2.10
2022-12-06T13:48:49.896Z,2.13
2022-12-06T13:51:59.690Z,2.20
2022-12-06T13:54:32.040Z,1.99
2022-12-06T13:57:03.947Z,2.12
2022-12-06T13:59:41.256Z,2.18
2022-12-06T14:02:51.542Z,2.15
2022-12-06T14:06:04.067Z,2.29
2022-12-06T14:08:37.447Z,2.17
2022-12-06T14:11:23.820Z,2.03
2022-12-06T14:14:03.495Z,2.07
2022-12-06T14:16:36.250Z,1.99
2022-12-06T14:19:13.224Z,1.97
2022-12-06T14:21:43.667Z,2.20
2022-12-06T14:24:27.008Z,2.11
2022-12-06T14:26:54.479Z,2.23
2022-12-06T14:29:25.720Z,2.02
2022-12-06T14:31:53.190Z,1.88
2022-12-06T14:34:26.121Z,1.89
2022-12-06T14:36:54.050Z,1.86
2022-12-06T14:39:24.997Z,1.85
2022-12-06T14:42:11.371Z,1.84
2022-12-06T14:44:40.243Z,1.85
2022-12-06T14:47:08.396Z,2.04
2022-12-06T14:49:54.826Z,1.87
2022-12-06T14:52:25.471Z,1.95
2022-12-06T14:54:53.812Z,1.92
2022-12-06T14:57:28.530Z,1.87
2022-12-06T15:00:27.016Z,1.88
2022-12-06T15:03:03.210Z,1.90
2022-12-06T15:05:33.257Z,1.86
2022-12-06T15:08:18.141Z,1.87
2022-12-06T15:10:55.444Z,1.97
2022-12-06T15:13:22.820Z,1.90
2022-12-06T15:16:03.990Z,1.94
2022-12-06T15:18:34.011Z,1.87
2022-12-06T15:21:01.849Z,1.88
2022-12-06T15:23:40.873Z,1.96
2022-12-06T15:26:12.254Z,2.03
2022-12-06T15:28:39.918Z,1.89
2022-12-06T15:31:17.108Z,1.93
2022-12-06T15:33:44.602Z,1.99
2022-12-06T15:36:17.618Z,1.92
2022-12-06T15:38:45.338Z,1.94
2022-12-06T15:41:17.042Z,1.82
2022-12-06T15:43:45.020Z,1.89
2022-12-06T15:46:20.521Z,1.84
2022-12-06T15:48:48.379Z,1.81
2022-12-06T15:51:20.636Z,1.94
2022-12-06T15:53:53.305Z,1.87
2022-12-06T15:56:24.086Z,1.74
2022-12-06T15:58:52.042Z,1.80
2022-12-06T16:01:24.185Z,1.79
2022-12-06T16:03:54.161Z,1.64
2022-12-06T16:06:23.120Z,1.86
2022-12-06T16:08:50.863Z,1.96
2022-12-06T16:11:20.908Z,1.86
2022-12-06T16:13:50.853Z,1.83
2022-12-06T16:16:20.058Z,1.96
2022-12-06T16:18:50.143Z,1.83
2022-12-06T16:21:23.107Z,1.87
2022-12-06T16:24:17.460Z,1.81
2022-12-06T16:26:47.602Z,1.78
2022-12-06T16:29:17.580Z,2.06
2022-12-06T16:31:45.407Z,2.05
2022-12-06T16:34:15.280Z,1.89
2022-12-06T16:36:57.424Z,1.91
2022-12-06T16:39:25.635Z,1.83
2022-12-06T16:41:53.087Z,1.69
2022-12-06T16:44:20.801Z,1.78
2022-12-06T16:46:51.831Z,1.81
2022-12-06T16:49:45.210Z,1.80
2022-12-06T16:52:10.338Z,1.96
2022-12-06T16:54:40.705Z,2.03
2022-12-06T16:57:08.182Z,1.92
2022-12-06T16:59:36.064Z,1.88
2022-12-06T17:02:06.067Z,1.84
2022-12-06T17:04:38.795Z,2.04
2022-12-06T17:07:06.230Z,2.39
2022-12-06T17:09:33.674Z,1.99
2022-12-06T17:12:06.120Z,1.84
2022-12-06T17:14:33.677Z,2.06
2022-12-06T17:17:03.743Z,1.82
2022-12-06T17:19:32.990Z,1.84
2022-12-06T17:22:02.076Z,1.84
2022-12-06T17:24:29.650Z,1.92
2022-12-06T17:26:59.112Z,1.92
2022-12-06T17:29:26.871Z,1.96
2022-12-06T17:31:54.373Z,2.24
2022-12-06T17:34:22.413Z,2.03
2022-12-06T17:36:50.191Z,2.28
2022-12-06T17:39:22.923Z,1.99
2022-12-06T17:42:08.243Z,2.17
2022-12-06T17:44:35.750Z,2.04
2022-12-06T17:47:03.603Z,2.15
2022-12-06T17:49:31.275Z,1.93
2022-12-06T17:51:58.754Z,2.06
2022-12-06T17:54:27.567Z,1.82
2022-12-06T17:56:56.069Z,1.92
2022-12-06T17:59:25.858Z,1.97
2022-12-06T18:02:14.574Z,1.91
2022-12-06T18:04:44.253Z,1.84
2022-12-06T18:07:12.785Z,2.05
2022-12-06T18:09:41.832Z,1.87
2022-12-06T18:12:09.598Z,1.94
2022-12-06T18:14:37.079Z,2.04
2022-12-06T18:20:39.691Z,2.03
2022-12-06T18:23:07.163Z,1.90
2022-12-06T18:25:39.623Z,1.85
2022-12-06T18:28:07.667Z,1.97
2022-12-06T18:30:35.639Z,1.86
2022-12-06T18:33:03.922Z,1.89
2022-12-06T18:35:31.368Z,1.78
2022-12-06T18:37:58.814Z,1.87
2022-12-06T18:40:26.299Z,1.88
2022-12-06T18:42:55.100Z,1.69
2022-12-06T18:45:22.535Z,2.00
2022-12-06T18:47:50.101Z,1.92
2022-12-06T18:50:17.711Z,2.01
2022-12-06T18:52:45.199Z,2.02
2022-12-06T18:55:12.660Z,1.92
2022-12-06T18:57:40.148Z,1.86
2022-12-06T19:00:10.366Z,2.08
2022-12-06T19:02:37.873Z,1.85
2022-12-06T19:08:53.571Z,1.93
2022-12-06T19:11:21.901Z,1.89
2022-12-06T19:13:53.869Z,1.70
2022-12-06T19:16:26.547Z,2.14
2022-12-06T19:18:55.977Z,2.01
2022-12-06T19:21:24.162Z,2.02
2022-12-06T19:23:53.780Z,2.12
2022-12-06T19:26:21.619Z,1.93
2022-12-06T19:28:49.281Z,1.82
2022-12-06T19:31:17.132Z,1.69
2022-12-06T19:33:47.191Z,1.81
2022-12-06T19:36:16.200Z,2.06
2022-12-06T19:38:43.858Z,1.91
2022-12-06T19:41:13.365Z,2.30
2022-12-06T19:43:58.513Z,2.00
2022-12-06T19:46:28.110Z,1.90
2022-12-06T19:48:59.108Z,1.84
2022-12-06T19:51:28.832Z,1.88
2022-12-06T19:53:57.810Z,2.26
2022-12-06T19:56:26.663Z,2.07
2022-12-06T19:58:56.559Z,2.46
2022-12-06T20:01:25.812Z,2.48
2022-12-06T20:03:54.385Z,2.45
2022-12-06T20:06:26.208Z,2.49
2022-12-06T20:08:55.213Z,2.44
2022-12-06T20:11:41.439Z,2.71
2022-12-06T20:14:11.461Z,2.76
2022-12-06T20:16:39.816Z,2.78
2022-12-06T20:19:08.100Z,2.68
2022-12-06T20:21:37.217Z,2.65
2022-12-06T20:24:07.835Z,2.29
2022-12-06T20:26:35.319Z,2.42
2022-12-06T20:29:03.068Z,2.56
2022-12-06T20:31:31.909Z,2.80
2022-12-06T20:34:01.073Z,2.54
2022-12-06T20:36:30.331Z,2.35
2022-12-06T20:38:59.959Z,2.44
2022-12-06T20:41:30.734Z,2.65
2022-12-06T20:43:58.875Z,2.20
2022-12-06T20:46:28.485Z,2.05
2022-12-06T20:48:57.230Z,1.98
2022-12-06T20:51:26.841Z,1.99
2022-12-06T20:54:00.402Z,2.60
2022-12-06T20:56:30.199Z,2.47
2022-12-06T20:58:59.768Z,2.65
2022-12-06T21:01:29.513Z,2.18
2022-12-06T21:03:57.420Z,1.93
2022-12-06T21:06:26.029Z,2.25
2022-12-06T21:08:54.012Z,2.04
2022-12-06T21:11:24.995Z,2.58
2022-12-06T21:13:57.335Z,2.56
2022-12-06T21:16:26.993Z,2.49
2022-12-06T21:18:59.024Z,2.29
2022-12-06T21:21:29.185Z,2.26
2022-12-06T21:23:59.981Z,2.00
2022-12-06T21:26:29.451Z,2.15
2022-12-06T21:28:56.935Z,1.76
2022-12-06T21:31:28.190Z,1.66
2022-12-06T21:33:56.055Z,1.89
2022-12-06T21:36:23.596Z,2.05
2022-12-06T21:38:53.196Z,1.81
2022-12-06T21:41:21.360Z,1.78
2022-12-06T21:43:50.579Z,1.64
2022-12-06T21:46:20.832Z,1.61
2022-12-06T21:48:51.357Z,1.83
2022-12-06T21:51:19.671Z,1.83
2022-12-06T21:53:47.751Z,1.83
2022-12-06T21:56:17.327Z,2.06
2022-12-06T21:58:45.090Z,2.02
2022-12-06T22:01:15.624Z,2.13
2022-12-06T22:03:43.647Z,1.99
2022-12-06T22:06:13.087Z,2.47
2022-12-06T22:08:42.086Z,2.37
2022-12-06T22:11:10.135Z,2.34
2022-12-06T22:13:37.977Z,2.40
2022-12-06T22:16:07.313Z,2.48
2022-12-06T22:18:42.683Z,2.17
2022-12-06T22:21:14.619Z,2.29
2022-12-06T22:23:42.116Z,2.07
2022-12-06T22:26:13.208Z,2.21
2022-12-06T22:28:44.138Z,2.48
2022-12-06T22:31:13.645Z,2.42
2022-12-06T22:33:42.862Z,2.28
2022-12-06T22:36:11.274Z,2.02
2022-12-06T22:38:39.066Z,1.96
2022-12-06T22:41:07.693Z,1.99
2022-12-06T22:43:35.535Z,2.10
2022-12-06T22:46:05.318Z,1.99
2022-12-06T22:48:32.843Z,1.67
2022-12-06T22:51:13.408Z,1.87
2022-12-06T22:53:42.205Z,2.18
2022-12-06T22:56:10.544Z,1.67
2022-12-06T22:58:38.108Z,2.19
2022-12-06T23:01:16.099Z,2.02
2022-12-06T23:03:45.419Z,2.17
2022-12-06T23:06:14.878Z,2.20
2022-12-06T23:08:42.462Z,1.95
2022-12-06T23:11:13.152Z,1.83
2022-12-06T23:13:43.801Z,1.88
2022-12-06T23:16:13.787Z,2.05
2022-12-06T23:18:41.688Z,1.82
2022-12-06T23:21:12.316Z,1.91
2022-12-06T23:23:42.423Z,1.81
2022-12-06T23:26:12.136Z,2.05
2022-12-06T23:28:39.904Z,1.87
2022-12-06T23:31:10.571Z,1.96
2022-12-06T23:33:38.332Z,1.85
2022-12-06T23:36:08.635Z,1.90
2022-12-06T23:38:36.723Z,2.00
2022-12-06T23:41:07.392Z,1.66
2022-12-06T23:43:35.877Z,1.70
2022-12-06T23:46:07.477Z,2.04
2022-12-06T23:48:35.572Z,2.12
2022-12-06T23:51:05.571Z,1.88
2022-12-06T23:53:33.890Z,2.03
2022-12-06T23:56:04.303Z,1.71
2022-12-06T23:58:33.785Z,1.77
